Smithers Airport
CYYD : now visible

Airfield :











YOU CAN JOIN US ON...

 
LOGIN :

Register | Disclaimer

   EN    FR    IT 

 









Legend :    VFR   Marginal VFR   IFR   Intensive IFR   Very Intensive IFR
Visi :
Ceiling :
>= 8 km
>= 3000ft
5 to 8 km
1000 to 3000 ft
1500m to 5 km
500 to 1000 ft
800 to 1500m
200 to 500 ft
< 800m
< 200 ft
Symbols :   Thunderstorms  Fog  Heavy snow  Heavy precipitations  Wind > 20 kt






- Airport Elevation : 1712 ft
- IATA code : YYD


CYYD - Smithers

CURRENT METAR :
  • 180200Z 36008KT 25SM SCT060 BKN100 14/08 A3010 RMK CU3AC2 SLP203 DENSITY ALT 1800FT

EXPIRED METARs :
  • 180100Z 35008KT 25SM SCT060 BKN100 13/09 A3010 RMK CU4AC2 SLP207
  • 180050Z 34012G18KT 25SM SCT060 BKN100 13/09 A3010 RMK CU4AC2 SLP206
  • 180000Z 07004KT 050V130 25SM -SHRA OVC070 14/10 A3008 RMK AC8 CVCTV CLD EMBD SLP197 DENSITY ALT 1900FT

TAF TAF CYYD
Valid from the 18 at 01:00 until the 18 at 06:00 UTC


180038Z 1801/1806 VRB03KT P6SM BKN070
TEMPO 1801/1806 P6SM -SHRA BKN040 RMK NXT FCST WILL BE ISSUED AT 181345Z
CZVR FIR / North America



MET'MAP, your aeronautical weather chart ! - Copyright ORBIFLY December 2007 - Disclaimer

ORBIFLY MET'MAP TEAM :

Programming & Development : Alexandra Zaïnal
Concept & original design : Baudouin d'Aumeries
Assistance for programming : Marc-Olivier Méhu
Technical & hardware support : Manuel Goepfert

Contact : metmap@orbifly.com




SOURCES & CREDITS :

   NOAA       Earth
Advisory